sensor_id;sensor_type;location;lat;lon;timestamp;P1;durP1;ratioP1;P2;durP2;ratioP2
53618;SDS011;68717;53.040;18.488;2023-04-03T00:00:10;9.65;;;2.15;;
53618;SDS011;68717;53.040;18.488;2023-04-03T00:00:43;9.73;;;2.10;;
53618;SDS011;68717;53.040;18.488;2023-04-03T00:01:02;9.02;;;2.10;;
53618;SDS011;68717;53.040;18.488;2023-04-03T00:01:18;10.10;;;2.00;;
53618;SDS011;68717;53.040;18.488;2023-04-03T00:01:30;10.20;;;1.98;;
53618;SDS011;68717;53.040;18.488;2023-04-03T00:01:43;9.50;;;2.10;;
53618;SDS011;68717;53.040;18.488;2023-04-03T00:01:56;11.30;;;2.00;;
53618;SDS011;68717;53.040;18.488;2023-04-03T00:02:09;11.77;;;2.05;;
53618;SDS011;68717;53.040;18.488;2023-04-03T00:02:23;9.75;;;2.00;;
53618;SDS011;68717;53.040;18.488;2023-04-03T00:02:36;10.88;;;2.00;;
53618;SDS011;68717;53.040;18.488;2023-04-03T00:02:50;12.80;;;2.20;;
53618;SDS011;68717;53.040;18.488;2023-04-03T00:03:02;12.88;;;2.22;;
53618;SDS011;68717;53.040;18.488;2023-04-03T00:03:15;11.75;;;2.30;;
53618;SDS011;68717;53.040;18.488;2023-04-03T00:03:28;10.30;;;2.28;;
53618;SDS011;68717;53.040;18.488;2023-04-03T00:03:41;9.93;;;1.85;;
53618;SDS011;68717;53.040;18.488;2023-04-03T00:03:54;11.70;;;2.25;;
53618;SDS011;68717;53.040;18.488;2023-04-03T00:04:08;11.60;;;2.42;;
53618;SDS011;68717;53.040;18.488;2023-04-03T00:04:20;9.98;;;2.20;;
53618;SDS011;68717;53.040;18.488;2023-04-03T00:04:33;10.32;;;2.25;;
53618;SDS011;68717;53.040;18.488;2023-04-03T00:04:46;8.98;;;2.00;;
53618;SDS011;68717;53.040;18.488;2023-04-03T00:04:59;8.00;;;2.00;;
53618;SDS011;68717;53.040;18.488;2023-04-03T00:05:12;9.38;;;1.90;;
53618;SDS011;68717;53.040;18.488;2023-04-03T00:05:25;9.90;;;2.03;;
53618;SDS011;68717;53.040;18.488;2023-04-03T00:05:38;13.60;;;2.30;;
53618;SDS011;68717;53.040;18.488;2023-04-03T00:05:52;14.63;;;2.50;;
53618;SDS011;68717;53.040;18.488;2023-04-03T00:06:05;11.65;;;2.50;;
53618;SDS011;68717;53.040;18.488;2023-04-03T00:06:19;11.45;;;2.53;;
53618;SDS011;68717;53.040;18.488;2023-04-03T00:06:32;12.10;;;2.42;;
53618;SDS011;68717;53.040;18.488;2023-04-03T00:06:45;11.77;;;2.22;;
53618;SDS011;68717;53.040;18.488;2023-04-03T00:06:58;10.55;;;2.20;;
53618;SDS011;68717;53.040;18.488;2023-04-03T00:07:12;10.00;;;2.10;;
53618;SDS011;68717;53.040;18.488;2023-04-03T00:07:24;10.15;;;2.03;;
53618;SDS011;68717;53.040;18.488;2023-04-03T00:07:37;9.38;;;2.03;;
53618;SDS011;68717;53.040;18.488;2023-04-03T00:07:49;9.65;;;2.13;;
53618;SDS011;68717;53.040;18.488;2023-04-03T00:08:02;9.98;;;2.35;;
53618;SDS011;68717;53.040;18.488;2023-04-03T00:08:16;10.15;;;2.15;;
53618;SDS011;68717;53.040;18.488;2023-04-03T00:08:29;12.77;;;2.20;;
53618;SDS011;68717;53.040;18.488;2023-04-03T00:08:42;13.93;;;2.22;;
53618;SDS011;68717;53.040;18.488;2023-04-03T00:08:56;12.23;;;2.13;;
53618;SDS011;68717;53.040;18.488;2023-04-03T00:09:09;12.05;;;2.00;;
53618;SDS011;68717;53.040;18.488;2023-04-03T00:09:22;12.23;;;2.10;;
53618;SDS011;68717;53.040;18.488;2023-04-03T00:09:34;11.43;;;2.20;;
53618;SDS011;68717;53.040;18.488;2023-04-03T00:09:47;11.27;;;2.20;;
53618;SDS011;68717;53.040;18.488;2023-04-03T00:10:00;11.50;;;2.13;;
53618;SDS011;68717;53.040;18.488;2023-04-03T00:10:12;12.08;;;2.10;;
53618;SDS011;68717;53.040;18.488;2023-04-03T00:10:27;11.90;;;2.25;;
53618;SDS011;68717;53.040;18.488;2023-04-03T00:10:39;9.88;;;2.28;;
53618;SDS011;68717;53.040;18.488;2023-04-03T00:10:52;10.27;;;2.20;;
53618;SDS011;68717;53.040;18.488;2023-04-03T00:11:05;10.32;;;2.22;;
53618;SDS011;68717;53.040;18.488;2023-04-03T00:11:18;10.85;;;2.05;;
53618;SDS011;68717;53.040;18.488;2023-04-03T00:11:31;11.52;;;2.05;;
53618;SDS011;68717;53.040;18.488;2023-04-03T00:11:45;11.23;;;2.45;;
53618;SDS011;68717;53.040;18.488;2023-04-03T00:11:58;9.43;;;2.63;;
53618;SDS011;68717;53.040;18.488;2023-04-03T00:12:10;10.18;;;2.47;;
53618;SDS011;68717;53.040;18.488;2023-04-03T00:12:23;12.68;;;2.22;;
53618;SDS011;68717;53.040;18.488;2023-04-03T00:12:36;12.32;;;2.00;;
53618;SDS011;68717;53.040;18.488;2023-04-03T00:12:49;11.23;;;1.85;;
53618;SDS011;68717;53.040;18.488;2023-04-03T00:13:02;9.82;;;1.80;;
53618;SDS011;68717;53.040;18.488;2023-04-03T00:13:15;9.63;;;2.00;;
53618;SDS011;68717;53.040;18.488;2023-04-03T00:13:28;9.52;;;2.13;;
53618;SDS011;68717;53.040;18.488;2023-04-03T00:13:41;10.77;;;2.20;;
53618;SDS011;68717;53.040;18.488;2023-04-03T00:13:54;12.75;;;2.28;;
53618;SDS011;68717;53.040;18.488;2023-04-03T00:14:07;14.18;;;2.22;;
53618;SDS011;68717;53.040;18.488;2023-04-03T00:14:20;13.68;;;2.10;;
53618;SDS011;68717;53.040;18.488;2023-04-03T00:14:32;12.68;;;2.05;;
53618;SDS011;68717;53.040;18.488;2023-04-03T00:14:46;11.98;;;2.05;;
53618;SDS011;68717;53.040;18.488;2023-04-03T00:14:58;11.35;;;2.22;;
53618;SDS011;68717;53.040;18.488;2023-04-03T00:15:11;11.02;;;2.50;;
53618;SDS011;68717;53.040;18.488;2023-04-03T00:15:24;10.80;;;2.50;;
53618;SDS011;68717;53.040;18.488;2023-04-03T00:15:37;10.23;;;2.33;;
53618;SDS011;68717;53.040;18.488;2023-04-03T00:15:50;10.50;;;2.08;;
53618;SDS011;68717;53.040;18.488;2023-04-03T00:16:04;10.52;;;1.90;;
53618;SDS011;68717;53.040;18.488;2023-04-03T00:16:18;10.00;;;2.00;;
53618;SDS011;68717;53.040;18.488;2023-04-03T00:16:31;8.55;;;2.00;;
53618;SDS011;68717;53.040;18.488;2023-04-03T00:16:43;8.77;;;2.10;;
53618;SDS011;68717;53.040;18.488;2023-04-03T00:16:56;8.30;;;2.20;;
53618;SDS011;68717;53.040;18.488;2023-04-03T00:17:09;8.38;;;2.25;;
53618;SDS011;68717;53.040;18.488;2023-04-03T00:17:21;8.93;;;2.40;;
53618;SDS011;68717;53.040;18.488;2023-04-03T00:17:36;9.50;;;2.30;;
53618;SDS011;68717;53.040;18.488;2023-04-03T00:17:49;10.75;;;2.10;;
53618;SDS011;68717;53.040;18.488;2023-04-03T00:18:02;11.40;;;2.10;;
53618;SDS011;68717;53.040;18.488;2023-04-03T00:18:15;9.57;;;2.10;;
53618;SDS011;68717;53.040;18.488;2023-04-03T00:18:27;8.75;;;2.00;;
53618;SDS011;68717;53.040;18.488;2023-04-03T00:18:40;9.82;;;2.00;;
53618;SDS011;68717;53.040;18.488;2023-04-03T00:18:53;10.70;;;2.08;;
53618;SDS011;68717;53.040;18.488;2023-04-03T00:19:06;10.00;;;2.08;;
53618;SDS011;68717;53.040;18.488;2023-04-03T00:19:19;10.52;;;2.10;;
53618;SDS011;68717;53.040;18.488;2023-04-03T00:19:32;12.18;;;2.10;;
53618;SDS011;68717;53.040;18.488;2023-04-03T00:19:44;13.18;;;2.20;;
53618;SDS011;68717;53.040;18.488;2023-04-03T00:19:57;12.90;;;2.20;;
53618;SDS011;68717;53.040;18.488;2023-04-03T00:20:11;11.88;;;2.15;;
53618;SDS011;68717;53.040;18.488;2023-04-03T00:20:24;12.80;;;2.20;;
53618;SDS011;68717;53.040;18.488;2023-04-03T00:20:36;15.90;;;2.22;;
53618;SDS011;68717;53.040;18.488;2023-04-03T00:20:50;16.42;;;2.42;;
53618;SDS011;68717;53.040;18.488;2023-04-03T00:21:03;14.27;;;2.45;;
53618;SDS011;68717;53.040;18.488;2023-04-03T00:21:16;11.70;;;2.20;;
53618;SDS011;68717;53.040;18.488;2023-04-03T00:21:29;12.52;;;2.20;;
53618;SDS011;68717;53.040;18.488;2023-04-03T00:21:42;11.32;;;2.08;;
53618;SDS011;68717;53.040;18.488;2023-04-03T00:21:55;10.38;;;1.95;;
53618;SDS011;68717;53.040;18.488;2023-04-03T00:22:07;11.27;;;1.88;;
53618;SDS011;68717;53.040;18.488;2023-04-03T00:22:20;11.43;;;2.00;;
53618;SDS011;68717;53.040;18.488;2023-04-03T00:22:33;10.57;;;2.15;;
53618;SDS011;68717;53.040;18.488;2023-04-03T00:22:45;10.93;;;2.20;;
53618;SDS011;68717;53.040;18.488;2023-04-03T00:22:58;11.25;;;2.28;;
53618;SDS011;68717;53.040;18.488;2023-04-03T00:23:11;11.65;;;2.38;;
53618;SDS011;68717;53.040;18.488;2023-04-03T00:23:24;9.73;;;2.25;;
53618;SDS011;68717;53.040;18.488;2023-04-03T00:23:37;8.90;;;2.08;;
53618;SDS011;68717;53.040;18.488;2023-04-03T00:23:50;9.50;;;1.92;;
53618;SDS011;68717;53.040;18.488;2023-04-03T00:24:03;10.82;;;1.90;;
53618;SDS011;68717;53.040;18.488;2023-04-03T00:24:16;10.25;;;2.10;;
53618;SDS011;68717;53.040;18.488;2023-04-03T00:24:28;9.18;;;2.05;;
53618;SDS011;68717;53.040;18.488;2023-04-03T00:24:41;10.40;;;2.15;;
53618;SDS011;68717;53.040;18.488;2023-04-03T00:24:53;10.85;;;2.10;;
53618;SDS011;68717;53.040;18.488;2023-04-03T00:25:08;8.45;;;1.83;;
53618;SDS011;68717;53.040;18.488;2023-04-03T00:25:21;9.23;;;1.80;;
53618;SDS011;68717;53.040;18.488;2023-04-03T00:25:34;10.60;;;2.08;;
53618;SDS011;68717;53.040;18.488;2023-04-03T00:25:46;11.63;;;2.10;;
53618;SDS011;68717;53.040;18.488;2023-04-03T00:25:59;10.88;;;2.00;;
53618;SDS011;68717;53.040;18.488;2023-04-03T00:26:12;10.55;;;2.00;;
53618;SDS011;68717;53.040;18.488;2023-04-03T00:26:25;11.82;;;2.17;;
53618;SDS011;68717;53.040;18.488;2023-04-03T00:26:38;12.07;;;2.03;;
53618;SDS011;68717;53.040;18.488;2023-04-03T00:26:51;10.77;;;1.95;;
53618;SDS011;68717;53.040;18.488;2023-04-03T00:27:03;9.48;;;2.10;;
53618;SDS011;68717;53.040;18.488;2023-04-03T00:27:16;8.27;;;1.90;;
53618;SDS011;68717;53.040;18.488;2023-04-03T00:27:29;8.98;;;2.05;;
53618;SDS011;68717;53.040;18.488;2023-04-03T00:27:42;9.18;;;2.20;;
53618;SDS011;68717;53.040;18.488;2023-04-03T00:27:55;8.85;;;2.05;;
53618;SDS011;68717;53.040;18.488;2023-04-03T00:28:08;8.65;;;1.98;;
53618;SDS011;68717;53.040;18.488;2023-04-03T00:28:21;9.90;;;2.10;;
53618;SDS011;68717;53.040;18.488;2023-04-03T00:28:34;10.20;;;2.13;;
53618;SDS011;68717;53.040;18.488;2023-04-03T00:28:47;10.23;;;2.20;;
53618;SDS011;68717;53.040;18.488;2023-04-03T00:28:59;10.82;;;2.17;;
53618;SDS011;68717;53.040;18.488;2023-04-03T00:29:13;12.35;;;2.10;;
53618;SDS011;68717;53.040;18.488;2023-04-03T00:29:25;11.20;;;2.10;;
53618;SDS011;68717;53.040;18.488;2023-04-03T00:29:38;10.32;;;2.15;;
53618;SDS011;68717;53.040;18.488;2023-04-03T00:29:51;9.98;;;2.10;;
53618;SDS011;68717;53.040;18.488;2023-04-03T00:30:04;11.70;;;2.13;;
53618;SDS011;68717;53.040;18.488;2023-04-03T00:30:19;10.05;;;2.25;;
53618;SDS011;68717;53.040;18.488;2023-04-03T00:30:33;11.43;;;2.17;;
53618;SDS011;68717;53.040;18.488;2023-04-03T00:30:46;13.32;;;2.10;;
53618;SDS011;68717;53.040;18.488;2023-04-03T00:31:01;11.13;;;2.10;;
53618;SDS011;68717;53.040;18.488;2023-04-03T00:31:15;9.70;;;2.08;;
53618;SDS011;68717;53.040;18.488;2023-04-03T00:31:28;9.23;;;2.20;;
53618;SDS011;68717;53.040;18.488;2023-04-03T00:31:41;8.70;;;2.20;;
53618;SDS011;68717;53.040;18.488;2023-04-03T00:31:54;9.27;;;2.17;;
53618;SDS011;68717;53.040;18.488;2023-04-03T00:32:06;10.38;;;2.13;;
53618;SDS011;68717;53.040;18.488;2023-04-03T00:32:20;10.25;;;2.13;;
53618;SDS011;68717;53.040;18.488;2023-04-03T00:32:32;9.55;;;1.85;;
53618;SDS011;68717;53.040;18.488;2023-04-03T00:32:48;9.13;;;1.90;;
53618;SDS011;68717;53.040;18.488;2023-04-03T00:33:01;8.90;;;2.10;;
53618;SDS011;68717;53.040;18.488;2023-04-03T00:33:14;9.57;;;2.13;;
53618;SDS011;68717;53.040;18.488;2023-04-03T00:33:27;9.35;;;1.98;;
53618;SDS011;68717;53.040;18.488;2023-04-03T00:33:40;10.32;;;2.00;;
53618;SDS011;68717;53.040;18.488;2023-04-03T00:33:53;10.20;;;1.90;;
53618;SDS011;68717;53.040;18.488;2023-04-03T00:34:06;9.88;;;2.08;;
53618;SDS011;68717;53.040;18.488;2023-04-03T00:34:19;8.68;;;2.03;;
53618;SDS011;68717;53.040;18.488;2023-04-03T00:34:32;10.15;;;2.22;;
53618;SDS011;68717;53.040;18.488;2023-04-03T00:34:44;10.18;;;2.10;;
53618;SDS011;68717;53.040;18.488;2023-04-03T00:34:57;11.52;;;2.00;;
53618;SDS011;68717;53.040;18.488;2023-04-03T00:35:10;11.80;;;2.00;;
53618;SDS011;68717;53.040;18.488;2023-04-03T00:35:27;9.85;;;2.00;;
53618;SDS011;68717;53.040;18.488;2023-04-03T00:35:40;10.23;;;2.15;;
53618;SDS011;68717;53.040;18.488;2023-04-03T00:35:53;9.95;;;2.00;;
53618;SDS011;68717;53.040;18.488;2023-04-03T00:36:07;10.90;;;2.00;;
53618;SDS011;68717;53.040;18.488;2023-04-03T00:36:21;11.85;;;2.15;;
53618;SDS011;68717;53.040;18.488;2023-04-03T00:36:33;9.52;;;2.00;;
53618;SDS011;68717;53.040;18.488;2023-04-03T00:36:48;9.63;;;2.00;;
53618;SDS011;68717;53.040;18.488;2023-04-03T00:37:00;11.70;;;2.17;;
53618;SDS011;68717;53.040;18.488;2023-04-03T00:37:13;11.75;;;2.30;;
53618;SDS011;68717;53.040;18.488;2023-04-03T00:37:26;11.57;;;2.20;;
53618;SDS011;68717;53.040;18.488;2023-04-03T00:37:38;10.65;;;2.00;;
53618;SDS011;68717;53.040;18.488;2023-04-03T00:37:51;9.52;;;1.95;;
53618;SDS011;68717;53.040;18.488;2023-04-03T00:38:05;9.45;;;2.10;;
53618;SDS011;68717;53.040;18.488;2023-04-03T00:38:19;9.05;;;2.20;;
53618;SDS011;68717;53.040;18.488;2023-04-03T00:38:32;8.90;;;2.15;;
53618;SDS011;68717;53.040;18.488;2023-04-03T00:38:45;9.65;;;2.17;;
53618;SDS011;68717;53.040;18.488;2023-04-03T00:38:57;9.38;;;2.10;;
53618;SDS011;68717;53.040;18.488;2023-04-03T00:39:10;10.07;;;2.00;;
53618;SDS011;68717;53.040;18.488;2023-04-03T00:39:22;10.23;;;2.10;;
53618;SDS011;68717;53.040;18.488;2023-04-03T00:39:36;10.23;;;2.35;;
53618;SDS011;68717;53.040;18.488;2023-04-03T00:39:49;10.50;;;2.35;;
53618;SDS011;68717;53.040;18.488;2023-04-03T00:40:02;11.10;;;2.10;;
53618;SDS011;68717;53.040;18.488;2023-04-03T00:40:15;12.13;;;2.30;;
53618;SDS011;68717;53.040;18.488;2023-04-03T00:40:32;11.50;;;2.70;;
53618;SDS011;68717;53.040;18.488;2023-04-03T00:40:48;9.82;;;2.28;;
53618;SDS011;68717;53.040;18.488;2023-04-03T00:41:02;8.10;;;1.98;;
53618;SDS011;68717;53.040;18.488;2023-04-03T00:41:15;9.23;;;2.10;;
53618;SDS011;68717;53.040;18.488;2023-04-03T00:41:28;10.30;;;2.30;;
53618;SDS011;68717;53.040;18.488;2023-04-03T00:41:40;10.77;;;2.30;;
53618;SDS011;68717;53.040;18.488;2023-04-03T00:41:53;11.10;;;2.22;;
53618;SDS011;68717;53.040;18.488;2023-04-03T00:42:06;10.27;;;2.20;;
53618;SDS011;68717;53.040;18.488;2023-04-03T00:42:18;9.82;;;2.10;;
53618;SDS011;68717;53.040;18.488;2023-04-03T00:42:31;9.82;;;2.10;;
53618;SDS011;68717;53.040;18.488;2023-04-03T00:42:45;9.63;;;2.00;;
53618;SDS011;68717;53.040;18.488;2023-04-03T00:43:00;10.73;;;1.98;;
53618;SDS011;68717;53.040;18.488;2023-04-03T00:43:13;11.45;;;2.00;;
53618;SDS011;68717;53.040;18.488;2023-04-03T00:43:27;11.18;;;2.05;;
53618;SDS011;68717;53.040;18.488;2023-04-03T00:43:40;9.43;;;1.90;;
53618;SDS011;68717;53.040;18.488;2023-04-03T00:43:54;9.60;;;2.13;;
53618;SDS011;68717;53.040;18.488;2023-04-03T00:44:19;11.52;;;2.30;;
53618;SDS011;68717;53.040;18.488;2023-04-03T00:45:25;10.32;;;2.30;;
53618;SDS011;68717;53.040;18.488;2023-04-03T00:45:42;12.13;;;2.40;;
53618;SDS011;68717;53.040;18.488;2023-04-03T00:45:58;12.07;;;2.28;;
53618;SDS011;68717;53.040;18.488;2023-04-03T00:46:11;10.77;;;2.25;;
53618;SDS011;68717;53.040;18.488;2023-04-03T00:46:24;11.85;;;2.42;;
53618;SDS011;68717;53.040;18.488;2023-04-03T00:46:36;12.20;;;2.13;;
53618;SDS011;68717;53.040;18.488;2023-04-03T00:46:49;12.82;;;1.90;;
53618;SDS011;68717;53.040;18.488;2023-04-03T00:47:02;13.18;;;1.95;;
53618;SDS011;68717;53.040;18.488;2023-04-03T00:47:18;12.30;;;2.10;;
53618;SDS011;68717;53.040;18.488;2023-04-03T00:47:31;12.85;;;2.30;;
53618;SDS011;68717;53.040;18.488;2023-04-03T00:47:44;13.52;;;2.30;;
53618;SDS011;68717;53.040;18.488;2023-04-03T00:47:59;12.57;;;2.08;;
53618;SDS011;68717;53.040;18.488;2023-04-03T00:48:13;11.50;;;1.92;;
53618;SDS011;68717;53.040;18.488;2023-04-03T00:48:30;12.10;;;2.10;;
53618;SDS011;68717;53.040;18.488;2023-04-03T00:48:46;10.75;;;2.00;;
53618;SDS011;68717;53.040;18.488;2023-04-03T00:49:00;11.43;;;2.35;;
53618;SDS011;68717;53.040;18.488;2023-04-03T00:49:12;11.38;;;2.50;;
53618;SDS011;68717;53.040;18.488;2023-04-03T00:49:25;10.13;;;2.40;;
53618;SDS011;68717;53.040;18.488;2023-04-03T00:49:38;11.25;;;2.30;;
53618;SDS011;68717;53.040;18.488;2023-04-03T00:49:52;11.13;;;2.20;;
53618;SDS011;68717;53.040;18.488;2023-04-03T00:50:06;10.30;;;2.00;;
53618;SDS011;68717;53.040;18.488;2023-04-03T00:50:19;9.93;;;2.03;;
53618;SDS011;68717;53.040;18.488;2023-04-03T00:50:34;9.15;;;2.05;;
53618;SDS011;68717;53.040;18.488;2023-04-03T00:50:50;8.98;;;2.08;;
53618;SDS011;68717;53.040;18.488;2023-04-03T00:51:04;9.77;;;2.10;;
53618;SDS011;68717;53.040;18.488;2023-04-03T00:51:19;10.63;;;2.20;;
53618;SDS011;68717;53.040;18.488;2023-04-03T00:51:35;11.25;;;2.42;;
53618;SDS011;68717;53.040;18.488;2023-04-03T00:51:48;10.95;;;2.40;;
53618;SDS011;68717;53.040;18.488;2023-04-03T00:52:00;10.88;;;2.20;;
53618;SDS011;68717;53.040;18.488;2023-04-03T00:52:15;14.48;;;2.33;;
53618;SDS011;68717;53.040;18.488;2023-04-03T00:52:29;12.57;;;2.13;;
53618;SDS011;68717;53.040;18.488;2023-04-03T00:52:43;8.85;;;2.00;;
53618;SDS011;68717;53.040;18.488;2023-04-03T00:52:58;9.90;;;2.10;;
53618;SDS011;68717;53.040;18.488;2023-04-03T00:53:13;9.55;;;2.17;;
53618;SDS011;68717;53.040;18.488;2023-04-03T00:53:31;9.13;;;2.08;;
53618;SDS011;68717;53.040;18.488;2023-04-03T00:53:47;9.55;;;2.13;;
53618;SDS011;68717;53.040;18.488;2023-04-03T00:54:03;9.43;;;2.28;;
53618;SDS011;68717;53.040;18.488;2023-04-03T00:54:19;9.45;;;2.35;;
53618;SDS011;68717;53.040;18.488;2023-04-03T00:54:32;8.65;;;2.30;;
53618;SDS011;68717;53.040;18.488;2023-04-03T00:54:49;9.18;;;2.08;;
53618;SDS011;68717;53.040;18.488;2023-04-03T00:55:06;9.50;;;2.10;;
53618;SDS011;68717;53.040;18.488;2023-04-03T00:55:20;11.05;;;2.08;;
53618;SDS011;68717;53.040;18.488;2023-04-03T00:55:34;11.77;;;2.20;;
53618;SDS011;68717;53.040;18.488;2023-04-03T00:55:50;10.15;;;2.25;;
53618;SDS011;68717;53.040;18.488;2023-04-03T00:56:05;9.73;;;2.10;;
53618;SDS011;68717;53.040;18.488;2023-04-03T00:56:21;9.60;;;2.13;;
53618;SDS011;68717;53.040;18.488;2023-04-03T00:56:37;11.05;;;2.30;;
53618;SDS011;68717;53.040;18.488;2023-04-03T00:56:51;11.23;;;2.40;;
53618;SDS011;68717;53.040;18.488;2023-04-03T00:57:07;9.52;;;2.17;;
53618;SDS011;68717;53.040;18.488;2023-04-03T00:57:21;10.75;;;2.30;;
53618;SDS011;68717;53.040;18.488;2023-04-03T00:57:35;12.40;;;2.55;;
53618;SDS011;68717;53.040;18.488;2023-04-03T00:57:48;11.25;;;2.50;;
53618;SDS011;68717;53.040;18.488;2023-04-03T00:58:01;11.75;;;2.35;;
53618;SDS011;68717;53.040;18.488;2023-04-03T00:58:15;11.25;;;2.20;;
53618;SDS011;68717;53.040;18.488;2023-04-03T00:58:32;9.30;;;2.20;;
53618;SDS011;68717;53.040;18.488;2023-04-03T00:58:50;11.18;;;2.35;;
53618;SDS011;68717;53.040;18.488;2023-04-03T00:59:06;11.45;;;2.30;;
53618;SDS011;68717;53.040;18.488;2023-04-03T00:59:23;11.48;;;2.35;;
53618;SDS011;68717;53.040;18.488;2023-04-03T00:59:39;12.20;;;2.40;;
53618;SDS011;68717;53.040;18.488;2023-04-03T00:59:57;11.93;;;2.50;;
53618;SDS011;68717;53.040;18.488;2023-04-03T01:00:16;11.57;;;2.50;;
53618;SDS011;68717;53.040;18.488;2023-04-03T01:00:30;11.07;;;2.40;;
53618;SDS011;68717;53.040;18.488;2023-04-03T01:00:44;11.23;;;2.35;;
53618;SDS011;68717;53.040;18.488;2023-04-03T01:01:02;10.43;;;2.22;;
53618;SDS011;68717;53.040;18.488;2023-04-03T01:01:20;11.70;;;2.53;;
53618;SDS011;68717;53.040;18.488;2023-04-03T01:01:35;11.15;;;2.40;;
53618;SDS011;68717;53.040;18.488;2023-04-03T01:01:49;8.25;;;2.13;;
53618;SDS011;68717;53.040;18.488;2023-04-03T01:02:02;8.65;;;2.25;;
53618;SDS011;68717;53.040;18.488;2023-04-03T01:02:16;11.25;;;2.40;;
53618;SDS011;68717;53.040;18.488;2023-04-03T01:02:29;11.55;;;2.20;;
53618;SDS011;68717;53.040;18.488;2023-04-03T01:02:41;10.60;;;2.00;;
53618;SDS011;68717;53.040;18.488;2023-04-03T01:02:54;8.00;;;2.00;;
53618;SDS011;68717;53.040;18.488;2023-04-03T01:03:08;8.30;;;2.05;;
53618;SDS011;68717;53.040;18.488;2023-04-03T01:03:22;9.98;;;2.50;;
53618;SDS011;68717;53.040;18.488;2023-04-03T01:03:35;12.15;;;2.63;;
53618;SDS011;68717;53.040;18.488;2023-04-03T01:03:48;11.80;;;2.70;;
53618;SDS011;68717;53.040;18.488;2023-04-03T01:04:00;12.27;;;2.40;;
53618;SDS011;68717;53.040;18.488;2023-04-03T01:04:26;12.52;;;2.13;;
53618;SDS011;68717;53.040;18.488;2023-04-03T01:04:41;10.77;;;2.00;;
53618;SDS011;68717;53.040;18.488;2023-04-03T01:04:55;8.93;;;2.00;;
53618;SDS011;68717;53.040;18.488;2023-04-03T01:05:08;9.55;;;2.10;;
53618;SDS011;68717;53.040;18.488;2023-04-03T01:05:22;9.63;;;2.13;;
53618;SDS011;68717;53.040;18.488;2023-04-03T01:05:35;10.68;;;2.15;;
53618;SDS011;68717;53.040;18.488;2023-04-03T01:05:47;11.98;;;2.10;;
53618;SDS011;68717;53.040;18.488;2023-04-03T01:06:02;11.82;;;2.20;;
53618;SDS011;68717;53.040;18.488;2023-04-03T01:06:16;10.82;;;2.25;;
53618;SDS011;68717;53.040;18.488;2023-04-03T01:06:32;11.63;;;2.50;;
53618;SDS011;68717;53.040;18.488;2023-04-03T01:06:48;13.07;;;2.50;;
53618;SDS011;68717;53.040;18.488;2023-04-03T01:07:01;11.85;;;2.30;;
53618;SDS011;68717;53.040;18.488;2023-04-03T01:07:16;11.93;;;2.40;;
53618;SDS011;68717;53.040;18.488;2023-04-03T01:07:33;11.35;;;2.33;;
53618;SDS011;68717;53.040;18.488;2023-04-03T01:07:49;10.35;;;2.13;;
53618;SDS011;68717;53.040;18.488;2023-04-03T01:08:03;9.64;;;2.04;;
53618;SDS011;68717;53.040;18.488;2023-04-03T01:08:16;12.15;;;2.10;;
53618;SDS011;68717;53.040;18.488;2023-04-03T01:08:29;12.55;;;2.22;;
53618;SDS011;68717;53.040;18.488;2023-04-03T01:08:42;10.05;;;2.10;;
53618;SDS011;68717;53.040;18.488;2023-04-03T01:08:59;7.80;;;2.05;;
53618;SDS011;68717;53.040;18.488;2023-04-03T01:09:12;8.02;;;2.17;;
53618;SDS011;68717;53.040;18.488;2023-04-03T01:09:25;9.18;;;2.20;;
53618;SDS011;68717;53.040;18.488;2023-04-03T01:09:38;9.50;;;2.00;;
53618;SDS011;68717;53.040;18.488;2023-04-03T01:09:52;9.52;;;1.85;;
53618;SDS011;68717;53.040;18.488;2023-04-03T01:10:09;10.07;;;2.30;;
53618;SDS011;68717;53.040;18.488;2023-04-03T01:10:25;12.15;;;2.50;;
53618;SDS011;68717;53.040;18.488;2023-04-03T01:10:39;10.88;;;2.20;;
53618;SDS011;68717;53.040;18.488;2023-04-03T01:10:52;8.55;;;1.90;;
53618;SDS011;68717;53.040;18.488;2023-04-03T01:11:04;9.30;;;1.92;;
53618;SDS011;68717;53.040;18.488;2023-04-03T01:11:17;11.10;;;2.17;;
53618;SDS011;68717;53.040;18.488;2023-04-03T01:11:30;11.25;;;2.17;;
53618;SDS011;68717;53.040;18.488;2023-04-03T01:11:43;10.35;;;2.10;;
53618;SDS011;68717;53.040;18.488;2023-04-03T01:12:12;9.25;;;2.10;;
53618;SDS011;68717;53.040;18.488;2023-04-03T01:12:25;10.50;;;2.20;;
53618;SDS011;68717;53.040;18.488;2023-04-03T01:12:41;10.32;;;2.15;;
53618;SDS011;68717;53.040;18.488;2023-04-03T01:12:58;10.77;;;2.30;;
53618;SDS011;68717;53.040;18.488;2023-04-03T01:13:19;10.35;;;2.20;;
53618;SDS011;68717;53.040;18.488;2023-04-03T01:13:35;12.25;;;2.20;;
53618;SDS011;68717;53.040;18.488;2023-04-03T01:13:48;11.10;;;2.00;;
53618;SDS011;68717;53.040;18.488;2023-04-03T01:14:01;12.98;;;2.25;;
53618;SDS011;68717;53.040;18.488;2023-04-03T01:14:14;13.07;;;2.40;;
53618;SDS011;68717;53.040;18.488;2023-04-03T01:14:26;12.02;;;2.22;;
53618;SDS011;68717;53.040;18.488;2023-04-03T01:14:40;10.40;;;2.13;;
53618;SDS011;68717;53.040;18.488;2023-04-03T01:14:54;9.10;;;2.17;;
53618;SDS011;68717;53.040;18.488;2023-04-03T01:15:09;10.18;;;2.30;;
53618;SDS011;68717;53.040;18.488;2023-04-03T01:15:25;13.18;;;2.35;;
53618;SDS011;68717;53.040;18.488;2023-04-03T01:15:40;14.20;;;2.17;;
53618;SDS011;68717;53.040;18.488;2023-04-03T01:15:53;12.38;;;2.10;;
53618;SDS011;68717;53.040;18.488;2023-04-03T01:16:07;12.40;;;2.50;;
53618;SDS011;68717;53.040;18.488;2023-04-03T01:16:20;11.02;;;2.45;;
53618;SDS011;68717;53.040;18.488;2023-04-03T01:16:33;10.00;;;2.30;;
53618;SDS011;68717;53.040;18.488;2023-04-03T01:16:51;10.13;;;2.25;;
53618;SDS011;68717;53.040;18.488;2023-04-03T01:17:41;11.68;;;2.20;;
53618;SDS011;68717;53.040;18.488;2023-04-03T01:17:56;10.20;;;2.17;;
53618;SDS011;68717;53.040;18.488;2023-04-03T01:18:11;11.02;;;2.30;;
53618;SDS011;68717;53.040;18.488;2023-04-03T01:18:24;9.25;;;2.13;;
53618;SDS011;68717;53.040;18.488;2023-04-03T01:18:38;8.13;;;2.08;;
53618;SDS011;68717;53.040;18.488;2023-04-03T01:18:52;10.35;;;2.17;;
53618;SDS011;68717;53.040;18.488;2023-04-03T01:19:05;10.10;;;2.10;;
53618;SDS011;68717;53.040;18.488;2023-04-03T01:19:21;9.10;;;2.10;;
53618;SDS011;68717;53.040;18.488;2023-04-03T01:19:36;10.50;;;2.20;;
53618;SDS011;68717;53.040;18.488;2023-04-03T01:19:56;8.90;;;1.90;;
53618;SDS011;68717;53.040;18.488;2023-04-03T01:22:23;9.38;;;2.30;;
53618;SDS011;68717;53.040;18.488;2023-04-03T01:22:43;9.18;;;2.20;;
53618;SDS011;68717;53.040;18.488;2023-04-03T01:23:06;10.32;;;2.13;;
53618;SDS011;68717;53.040;18.488;2023-04-03T01:23:33;12.52;;;2.15;;
53618;SDS011;68717;53.040;18.488;2023-04-03T01:23:58;11.05;;;2.30;;
53618;SDS011;68717;53.040;18.488;2023-04-03T01:24:51;12.43;;;2.22;;
53618;SDS011;68717;53.040;18.488;2023-04-03T01:25:05;11.40;;;2.33;;
53618;SDS011;68717;53.040;18.488;2023-04-03T01:25:18;10.77;;;2.35;;
53618;SDS011;68717;53.040;18.488;2023-04-03T01:25:30;10.55;;;2.30;;
53618;SDS011;68717;53.040;18.488;2023-04-03T01:25:44;10.50;;;2.30;;
53618;SDS011;68717;53.040;18.488;2023-04-03T01:25:58;9.52;;;2.10;;
53618;SDS011;68717;53.040;18.488;2023-04-03T01:26:12;9.13;;;1.98;;
53618;SDS011;68717;53.040;18.488;2023-04-03T01:26:24;10.82;;;2.00;;
53618;SDS011;68717;53.040;18.488;2023-04-03T01:26:37;11.55;;;2.15;;